createdAt,value
2023-05-15T00:00:19.125Z,9.50
2023-05-15T00:02:47.409Z,10.75
2023-05-15T00:05:15.163Z,10.25
2023-05-15T00:07:43.018Z,12.25
2023-05-15T00:13:19.009Z,9.33
2023-05-15T00:15:46.387Z,11.33
2023-05-15T00:18:14.578Z,10.25
2023-05-15T00:20:41.958Z,12.67
2023-05-15T00:23:10.155Z,11.00
2023-05-15T00:25:37.516Z,9.00
2023-05-15T00:28:05.002Z,9.75
2023-05-15T00:30:32.670Z,10.67
2023-05-15T00:33:00.137Z,12.00
2023-05-15T00:35:27.604Z,10.67
2023-05-15T00:37:54.971Z,12.00
2023-05-15T00:40:26.182Z,10.00
2023-05-15T00:42:54.538Z,11.67
2023-05-15T00:45:22.909Z,11.67
2023-05-15T00:47:50.955Z,10.00
2023-05-15T00:50:19.123Z,11.00
2023-05-15T00:52:46.779Z,10.00
2023-05-15T00:55:14.157Z,11.00
2023-05-15T00:57:43.698Z,10.00
2023-05-15T01:00:12.328Z,11.00
2023-05-15T01:02:40.334Z,11.67
2023-05-15T01:05:09.275Z,10.67
2023-05-15T01:07:57.786Z,11.67
2023-05-15T01:10:25.847Z,10.00
2023-05-15T01:12:55.432Z,10.67
2023-05-15T01:15:24.625Z,8.00
2023-05-15T01:17:52.563Z,9.67
2023-05-15T01:20:22.684Z,9.67
2023-05-15T01:23:15.929Z,9.67
2023-05-15T01:25:55.422Z,9.00
2023-05-15T01:28:37.495Z,10.67
2023-05-15T01:31:12.934Z,9.00
2023-05-15T01:33:45.996Z,9.33
2023-05-15T01:36:21.885Z,10.00
2023-05-15T01:38:53.563Z,9.00
2023-05-15T01:41:36.930Z,8.33
2023-05-15T01:44:11.589Z,9.00
2023-05-15T01:46:42.877Z,9.33
2023-05-15T01:49:14.352Z,10.50
2023-05-15T01:51:46.016Z,8.67
2023-05-15T01:54:16.368Z,9.75
2023-05-15T01:56:45.376Z,9.67
2023-05-15T01:59:14.782Z,7.00
2023-05-15T02:01:42.865Z,7.33
2023-05-15T02:04:11.508Z,8.00
2023-05-15T02:06:41.101Z,10.00
2023-05-15T02:09:09.983Z,12.00
2023-05-15T02:11:37.649Z,9.67
2023-05-15T02:14:06.122Z,11.00
2023-05-15T02:16:33.596Z,10.00
2023-05-15T02:19:01.089Z,9.33
2023-05-15T02:21:29.455Z,11.33
2023-05-15T02:23:56.793Z,10.00
2023-05-15T02:27:02.941Z,9.75
2023-05-15T02:29:46.786Z,9.75
2023-05-15T02:32:17.145Z,8.50
2023-05-15T02:35:26.310Z,9.00
2023-05-15T02:37:56.739Z,9.33
2023-05-15T02:40:26.405Z,11.75
2023-05-15T02:42:54.523Z,10.67
2023-05-15T02:45:23.351Z,12.00
2023-05-15T02:47:52.333Z,10.75
2023-05-15T02:50:20.152Z,11.33
2023-05-15T02:52:47.580Z,12.00
2023-05-15T02:55:14.955Z,13.00
2023-05-15T02:57:42.469Z,10.00
2023-05-15T03:00:13.707Z,11.00
2023-05-15T03:02:41.361Z,9.67
2023-05-15T03:05:09.158Z,11.67
2023-05-15T03:07:36.717Z,12.00
2023-05-15T03:10:04.545Z,11.00
2023-05-15T03:12:32.123Z,10.00
2023-05-15T03:14:59.586Z,12.33
2023-05-15T03:17:27.811Z,11.67
2023-05-15T03:19:56.448Z,11.33
2023-05-15T03:22:24.668Z,12.00
2023-05-15T03:24:52.347Z,10.00
2023-05-15T03:27:19.657Z,10.00
2023-05-15T03:29:49.215Z,11.00
2023-05-15T03:32:17.576Z,12.33
2023-05-15T03:34:45.008Z,10.00
2023-05-15T03:37:12.348Z,12.25
2023-05-15T03:39:39.771Z,14.67
2023-05-15T03:42:07.514Z,14.33
2023-05-15T03:44:35.444Z,11.00
2023-05-15T03:47:02.928Z,14.00
2023-05-15T03:49:30.414Z,13.33
2023-05-15T03:51:57.960Z,14.00
2023-05-15T03:54:25.577Z,15.00
2023-05-15T03:56:53.056Z,11.33
2023-05-15T03:59:20.833Z,16.33
2023-05-15T04:02:02.687Z,13.00
2023-05-15T04:04:31.977Z,15.00
2023-05-15T04:07:00.320Z,13.00
2023-05-15T04:09:27.714Z,8.67
2023-05-15T04:11:55.238Z,12.33
2023-05-15T04:14:22.720Z,14.00
2023-05-15T04:16:50.151Z,16.67
2023-05-15T04:19:17.590Z,14.00
2023-05-15T04:21:44.962Z,14.33
2023-05-15T04:24:12.523Z,13.00
2023-05-15T04:26:39.946Z,12.00
2023-05-15T04:29:07.364Z,14.00
2023-05-15T04:31:35.335Z,11.75
2023-05-15T04:34:04.179Z,10.75
2023-05-15T04:36:32.327Z,12.25
2023-05-15T04:38:59.664Z,12.75
2023-05-15T04:41:27.425Z,11.50
2023-05-15T04:43:54.921Z,15.67
2023-05-15T04:46:22.356Z,13.50
2023-05-15T04:48:49.756Z,12.75
2023-05-15T04:51:17.693Z,13.25
2023-05-15T04:53:45.010Z,14.50
2023-05-15T04:56:12.422Z,13.75
2023-05-15T04:58:39.973Z,16.00
2023-05-15T05:01:07.899Z,13.75
2023-05-15T05:03:35.512Z,10.00
2023-05-15T05:06:02.925Z,12.50
2023-05-15T05:08:30.592Z,10.75
2023-05-15T05:10:58.098Z,11.25
2023-05-15T05:13:25.514Z,12.00
2023-05-15T05:15:52.900Z,11.25
2023-05-15T05:18:20.325Z,11.50
2023-05-15T05:20:47.637Z,9.00
2023-05-15T05:23:15.438Z,15.50
2023-05-15T05:25:42.846Z,12.25
2023-05-15T05:28:10.243Z,10.75
2023-05-15T05:30:37.659Z,12.00
2023-05-15T05:33:06.292Z,9.00
2023-05-15T05:35:34.021Z,9.00
2023-05-15T05:38:01.851Z,12.00
2023-05-15T05:40:29.539Z,11.00
2023-05-15T05:43:03.141Z,11.00
2023-05-15T05:45:30.611Z,12.50
2023-05-15T05:47:58.394Z,14.25
2023-05-15T05:50:25.850Z,14.00
2023-05-15T05:52:53.432Z,14.00
2023-05-15T05:55:20.884Z,11.50
2023-05-15T05:57:48.217Z,13.50
2023-05-15T06:00:16.042Z,14.25
2023-05-15T06:02:44.079Z,15.00
2023-05-15T06:05:11.790Z,13.50
2023-05-15T06:07:39.150Z,13.25
2023-05-15T06:10:09.593Z,13.25
2023-05-15T06:12:37.476Z,16.50
2023-05-15T06:15:06.345Z,13.00
2023-05-15T06:17:34.186Z,13.00
2023-05-15T06:20:01.668Z,12.50
2023-05-15T06:22:29.186Z,14.25
2023-05-15T06:24:56.517Z,13.50
2023-05-15T06:27:26.510Z,15.50
2023-05-15T06:29:53.927Z,14.75
2023-05-15T06:32:21.921Z,14.75
2023-05-15T06:34:49.345Z,15.00
2023-05-15T06:37:16.839Z,18.25
2023-05-15T06:39:44.382Z,17.00
2023-05-15T06:42:11.820Z,15.50
2023-05-15T06:44:39.591Z,17.75
2023-05-15T06:47:09.593Z,16.75
2023-05-15T06:49:37.896Z,13.75
2023-05-15T06:52:05.748Z,17.25
2023-05-15T06:54:33.249Z,16.25
2023-05-15T06:57:00.841Z,14.00
2023-05-15T06:59:28.484Z,14.60
2023-05-15T07:01:56.241Z,12.60
2023-05-15T07:04:23.666Z,14.00
2023-05-15T07:06:51.265Z,13.00
2023-05-15T07:09:18.641Z,12.40
2023-05-15T07:11:46.187Z,12.40
2023-05-15T07:14:13.775Z,13.00
2023-05-15T07:16:41.305Z,15.20
2023-05-15T07:19:09.768Z,12.00
2023-05-15T07:21:37.378Z,12.40
2023-05-15T07:24:05.108Z,12.60
2023-05-15T07:26:40.998Z,11.60
2023-05-15T07:29:14.251Z,11.00
2023-05-15T07:31:44.820Z,11.80
2023-05-15T07:34:12.378Z,11.00
2023-05-15T07:36:39.763Z,8.80
2023-05-15T07:39:07.274Z,10.80
2023-05-15T07:41:34.782Z,8.20
2023-05-15T07:44:02.161Z,8.00
2023-05-15T07:46:29.885Z,8.20
2023-05-15T07:48:57.254Z,8.60
2023-05-15T07:51:24.665Z,7.60
2023-05-15T07:53:52.088Z,7.60
2023-05-15T07:56:19.523Z,6.60
2023-05-15T07:58:46.928Z,4.00
2023-05-15T08:01:14.329Z,6.20
2023-05-15T08:03:41.822Z,6.40
2023-05-15T08:06:09.220Z,8.00
2023-05-15T08:08:37.040Z,8.60
2023-05-15T08:11:04.426Z,6.40
2023-05-15T08:13:31.908Z,4.00
2023-05-15T08:15:59.396Z,7.00
2023-05-15T08:18:28.169Z,8.40
2023-05-15T08:20:55.628Z,3.80
2023-05-15T08:23:23.011Z,6.40
2023-05-15T08:25:51.001Z,5.00
2023-05-15T08:28:18.416Z,4.40
2023-05-15T08:30:46.323Z,6.00
2023-05-15T08:33:13.777Z,5.40
2023-05-15T08:35:41.231Z,5.60
2023-05-15T08:38:08.627Z,5.80
2023-05-15T08:40:39.766Z,3.60
2023-05-15T08:43:15.250Z,5.40
2023-05-15T08:45:43.622Z,6.40
2023-05-15T08:48:14.492Z,5.80
2023-05-15T08:50:44.237Z,6.00
2023-05-15T08:53:13.777Z,4.00
2023-05-15T08:55:42.312Z,5.00
2023-05-15T08:58:10.145Z,4.60
2023-05-15T09:00:38.026Z,6.60
2023-05-15T09:03:05.853Z,3.00
2023-05-15T09:05:34.747Z,3.60
2023-05-15T09:08:04.433Z,4.00
2023-05-15T09:10:32.928Z,6.00
2023-05-15T09:13:02.474Z,5.20
2023-05-15T09:15:30.700Z,4.40
2023-05-15T09:17:58.475Z,5.60
2023-05-15T09:20:34.407Z,5.00
2023-05-15T09:23:03.662Z,2.40
2023-05-15T09:25:42.635Z,7.00
2023-05-15T09:28:24.509Z,5.20
2023-05-15T09:31:01.201Z,5.80
2023-05-15T09:33:34.593Z,5.60
2023-05-15T09:36:07.130Z,7.20
2023-05-15T09:38:43.489Z,6.20
2023-05-15T09:41:11.592Z,5.40
2023-05-15T09:43:40.702Z,5.00
2023-05-15T09:46:09.746Z,6.00
2023-05-15T09:48:37.659Z,7.00
2023-05-15T09:51:07.770Z,5.00
2023-05-15T09:53:35.829Z,5.00
2023-05-15T09:56:03.432Z,7.00
2023-05-15T09:58:31.018Z,6.40
2023-05-15T10:01:00.232Z,6.00
2023-05-15T10:03:27.711Z,4.80
2023-05-15T10:06:01.394Z,6.00
2023-05-15T10:08:29.383Z,6.40
2023-05-15T10:11:01.245Z,5.60
2023-05-15T10:13:33.649Z,5.80
2023-05-15T10:16:03.751Z,6.00
2023-05-15T10:18:33.972Z,5.00
2023-05-15T10:21:04.416Z,5.40
2023-05-15T10:23:35.749Z,5.40
2023-05-15T10:26:10.159Z,6.20
2023-05-15T10:28:39.056Z,5.40
2023-05-15T10:31:07.433Z,3.00
2023-05-15T10:33:37.120Z,4.20
2023-05-15T10:36:05.700Z,3.20
2023-05-15T10:38:34.302Z,5.20
2023-05-15T10:41:16.104Z,5.00
2023-05-15T10:43:44.651Z,4.20
2023-05-15T10:46:13.184Z,3.60
2023-05-15T10:48:40.844Z,1.80
2023-05-15T10:51:42.302Z,5.20
2023-05-15T10:54:10.008Z,5.20
2023-05-15T10:56:39.056Z,4.40
2023-05-15T10:59:09.416Z,13.40
2023-05-15T11:01:38.859Z,6.60
2023-05-15T11:04:14.793Z,7.00
2023-05-15T11:06:46.949Z,4.80
2023-05-15T11:09:27.668Z,7.00
2023-05-15T11:12:00.353Z,5.40
2023-05-15T11:14:29.521Z,6.80
2023-05-15T11:17:01.325Z,5.80
2023-05-15T11:19:28.982Z,4.60
2023-05-15T11:22:01.489Z,6.60
2023-05-15T11:24:32.972Z,6.40
2023-05-15T11:27:01.604Z,5.80
2023-05-15T11:29:29.801Z,4.40
2023-05-15T11:31:57.578Z,7.00
2023-05-15T11:34:35.245Z,7.40
2023-05-15T11:37:02.658Z,7.20
2023-05-15T11:39:30.733Z,6.60
2023-05-15T11:42:11.402Z,6.00
2023-05-15T11:44:40.253Z,5.60
2023-05-15T11:47:11.379Z,7.00
2023-05-15T11:49:38.876Z,7.00
2023-05-15T11:52:07.073Z,5.60
2023-05-15T11:54:34.512Z,6.40
2023-05-15T11:57:02.102Z,6.20
2023-05-15T11:59:32.090Z,5.40
2023-05-15T12:01:59.851Z,5.20
2023-05-15T12:04:27.688Z,5.20
2023-05-15T12:06:55.290Z,5.00
2023-05-15T12:09:27.419Z,6.00
2023-05-15T12:11:56.154Z,7.00
2023-05-15T12:14:30.453Z,6.00
2023-05-15T12:17:04.696Z,6.20
2023-05-15T12:19:34.808Z,6.40
2023-05-15T12:22:05.116Z,3.60
2023-05-15T12:24:32.666Z,5.40
2023-05-15T12:27:00.148Z,6.60
2023-05-15T12:29:28.824Z,4.00
2023-05-15T12:31:56.366Z,0.60
2023-05-15T12:34:24.808Z,4.67
2023-05-15T12:36:52.521Z,6.20
2023-05-15T12:39:19.857Z,5.60
2023-05-15T12:41:47.891Z,4.80
2023-05-15T12:44:17.665Z,6.00
2023-05-15T12:46:46.443Z,5.80
2023-05-15T12:49:14.039Z,7.40
2023-05-15T12:51:44.848Z,8.00
2023-05-15T12:54:20.188Z,5.20
2023-05-15T12:56:48.652Z,4.60
2023-05-15T12:59:17.377Z,5.20
2023-05-15T13:01:45.280Z,5.80
2023-05-15T13:04:12.777Z,6.60
2023-05-15T13:06:46.570Z,4.60
2023-05-15T13:09:25.373Z,5.40
2023-05-15T13:11:56.518Z,5.20
2023-05-15T13:14:27.312Z,5.00
2023-05-15T13:16:54.702Z,5.60
2023-05-15T13:19:22.202Z,5.60
2023-05-15T13:21:50.912Z,4.20
2023-05-15T13:24:18.331Z,5.00
2023-05-15T13:26:45.868Z,6.00
2023-05-15T13:29:13.340Z,6.60
2023-05-15T13:31:40.850Z,6.80
2023-05-15T13:34:08.246Z,8.60
2023-05-15T13:36:35.735Z,5.00
2023-05-15T13:39:04.002Z,7.40
2023-05-15T13:41:31.932Z,8.00
2023-05-15T13:44:00.611Z,7.60
2023-05-15T13:46:28.140Z,5.00
2023-05-15T13:48:55.506Z,4.20
2023-05-15T13:51:22.914Z,9.80
2023-05-15T13:53:50.368Z,8.20
2023-05-15T13:56:17.813Z,5.00
2023-05-15T13:58:45.273Z,5.40
2023-05-15T14:01:12.991Z,6.60
2023-05-15T14:03:40.622Z,5.40
2023-05-15T14:06:09.308Z,5.40
2023-05-15T14:08:36.857Z,3.60
2023-05-15T14:11:04.378Z,2.00
2023-05-15T14:13:34.077Z,6.00
2023-05-15T14:16:01.876Z,6.60
2023-05-15T14:18:31.761Z,4.80
2023-05-15T14:20:59.487Z,6.00
2023-05-15T14:23:27.176Z,4.20
2023-05-15T14:25:54.786Z,7.60
2023-05-15T14:28:22.376Z,3.40
2023-05-15T14:30:49.716Z,5.40
2023-05-15T14:33:17.259Z,6.00
2023-05-15T14:35:44.717Z,7.20
2023-05-15T14:38:12.196Z,6.00
2023-05-15T14:40:39.541Z,6.00
2023-05-15T14:43:06.880Z,4.40
2023-05-15T14:45:34.754Z,5.00
2023-05-15T14:48:02.224Z,4.80
2023-05-15T14:50:29.825Z,5.00
2023-05-15T14:52:57.273Z,6.00
2023-05-15T14:55:24.659Z,6.00
2023-05-15T14:57:52.229Z,5.60
2023-05-15T15:00:19.779Z,3.80
2023-05-15T15:02:47.350Z,7.20
2023-05-15T15:05:14.838Z,5.20
2023-05-15T15:08:08.900Z,5.60
2023-05-15T15:10:38.211Z,4.60
2023-05-15T15:13:06.523Z,5.80
2023-05-15T15:15:35.152Z,0.80
2023-05-15T15:18:02.626Z,4.80
2023-05-15T15:20:30.045Z,5.80
2023-05-15T15:22:57.424Z,6.40
2023-05-15T15:25:25.023Z,5.00
2023-05-15T15:27:53.059Z,5.60
2023-05-15T15:30:20.519Z,4.40
2023-05-15T15:32:48.185Z,5.80
2023-05-15T15:35:15.767Z,6.00
2023-05-15T15:37:43.505Z,6.00
2023-05-15T15:40:12.156Z,7.00
2023-05-15T15:42:39.749Z,6.00
2023-05-15T15:45:07.794Z,7.00
2023-05-15T15:47:35.479Z,7.00
2023-05-15T15:50:02.989Z,6.40
2023-05-15T15:52:30.613Z,9.00
2023-05-15T15:54:58.082Z,5.00
2023-05-15T15:57:25.792Z,6.80
2023-05-15T15:59:53.253Z,5.80
2023-05-15T16:02:21.482Z,6.00
2023-05-15T16:04:48.824Z,5.00
2023-05-15T16:07:16.369Z,7.00
2023-05-15T16:09:43.827Z,8.00
2023-05-15T16:12:11.503Z,8.00
2023-05-15T16:14:38.908Z,6.20
2023-05-15T16:17:06.352Z,8.20
2023-05-15T16:19:38.437Z,5.20
2023-05-15T16:22:05.869Z,9.00
2023-05-15T16:24:35.822Z,7.40
2023-05-15T16:27:04.211Z,8.80
2023-05-15T16:29:31.652Z,9.60
2023-05-15T16:31:59.607Z,6.20
2023-05-15T16:34:27.538Z,8.00
2023-05-15T16:36:54.898Z,9.60
2023-05-15T16:39:22.228Z,11.00
2023-05-15T16:41:49.953Z,10.40
2023-05-15T16:44:17.376Z,10.80
2023-05-15T16:46:45.262Z,9.00
2023-05-15T16:49:12.754Z,10.60
2023-05-15T16:51:40.160Z,10.80
2023-05-15T16:54:07.614Z,12.20
2023-05-15T16:56:36.931Z,12.40
2023-05-15T16:59:04.272Z,15.80
2023-05-15T17:01:32.259Z,9.80
2023-05-15T17:03:59.673Z,12.20
2023-05-15T17:06:27.051Z,11.40
2023-05-15T17:08:54.479Z,12.40
2023-05-15T17:11:21.829Z,11.40
2023-05-15T17:13:49.191Z,10.00
2023-05-15T17:16:16.876Z,9.80
2023-05-15T17:18:44.337Z,11.60
2023-05-15T17:21:11.749Z,7.00
2023-05-15T17:23:39.250Z,10.60
2023-05-15T17:26:06.609Z,12.00
2023-05-15T17:28:35.888Z,15.00
2023-05-15T17:31:11.398Z,13.00
2023-05-15T17:33:38.904Z,11.40
2023-05-15T17:36:06.370Z,14.40
2023-05-15T17:38:34.292Z,13.40
2023-05-15T17:41:01.640Z,12.40
2023-05-15T17:43:29.176Z,12.80
2023-05-15T17:45:57.622Z,13.20
2023-05-15T17:48:25.018Z,8.60
2023-05-15T17:50:53.039Z,14.75
2023-05-15T17:53:20.503Z,14.00
2023-05-15T17:55:48.741Z,17.00
2023-05-15T17:58:16.128Z,15.00
2023-05-15T18:00:43.545Z,68.00
2023-05-15T18:03:11.058Z,31.25
2023-05-15T18:05:38.849Z,23.50
2023-05-15T18:08:06.953Z,19.00
2023-05-15T18:10:34.359Z,16.75
2023-05-15T18:13:01.816Z,13.50
2023-05-15T18:15:32.010Z,13.25
2023-05-15T18:17:59.593Z,13.50
2023-05-15T18:20:27.188Z,15.50
2023-05-15T18:22:54.623Z,13.00
2023-05-15T18:25:22.014Z,14.00
2023-05-15T18:27:49.536Z,15.25
2023-05-15T18:30:17.226Z,15.50
2023-05-15T18:32:45.348Z,15.50
2023-05-15T18:35:12.874Z,16.00
2023-05-15T18:37:40.246Z,12.00
2023-05-15T18:40:08.327Z,13.50
2023-05-15T18:42:35.780Z,14.25
2023-05-15T18:45:03.414Z,14.75
2023-05-15T18:47:31.113Z,16.75
2023-05-15T18:49:58.529Z,13.25
2023-05-15T18:52:27.031Z,13.50
2023-05-15T18:54:54.459Z,18.50
2023-05-15T18:57:21.824Z,16.00
2023-05-15T18:59:49.261Z,18.75
2023-05-15T19:02:16.685Z,17.25
2023-05-15T19:04:44.146Z,16.75
2023-05-15T19:07:11.742Z,15.75
2023-05-15T19:09:39.114Z,18.00
2023-05-15T19:12:06.907Z,16.75
2023-05-15T19:14:34.844Z,13.50
2023-05-15T19:17:02.359Z,15.00
2023-05-15T19:19:30.366Z,15.25
2023-05-15T19:21:57.891Z,14.75
2023-05-15T19:24:25.884Z,12.00
2023-05-15T19:26:53.226Z,16.25
2023-05-15T19:29:20.738Z,17.25
2023-05-15T19:31:48.505Z,15.75
2023-05-15T19:34:16.044Z,14.25
2023-05-15T19:36:46.068Z,17.75
2023-05-15T19:39:13.609Z,12.75
2023-05-15T19:41:41.548Z,13.00
2023-05-15T19:44:09.174Z,12.25
2023-05-15T19:46:37.365Z,9.00
2023-05-15T19:49:04.983Z,13.50
2023-05-15T19:51:34.234Z,15.00
2023-05-15T19:54:02.265Z,13.00
2023-05-15T19:56:29.773Z,14.00
2023-05-15T19:58:57.196Z,13.75
2023-05-15T20:01:24.745Z,12.50
2023-05-15T20:03:52.905Z,16.25
2023-05-15T20:06:21.169Z,15.25
2023-05-15T20:08:48.518Z,15.00
2023-05-15T20:11:16.008Z,16.50
2023-05-15T20:13:43.433Z,14.00
2023-05-15T20:16:12.791Z,16.50
2023-05-15T20:18:40.395Z,12.25
2023-05-15T20:21:07.838Z,15.00
2023-05-15T20:23:35.405Z,11.25
2023-05-15T20:26:03.741Z,14.00
2023-05-15T20:28:31.857Z,16.25
2023-05-15T20:31:00.177Z,13.00
2023-05-15T20:33:27.985Z,16.50
2023-05-15T20:35:55.512Z,13.00
2023-05-15T20:38:26.225Z,15.00
2023-05-15T20:40:54.283Z,13.50
2023-05-15T20:43:21.830Z,13.50
2023-05-15T20:45:49.278Z,14.50
2023-05-15T20:48:16.956Z,14.50
2023-05-15T20:50:44.323Z,13.75
2023-05-15T20:53:12.215Z,17.25
2023-05-15T20:55:39.676Z,15.75
2023-05-15T20:58:07.084Z,12.25
2023-05-15T21:00:34.874Z,17.75
2023-05-15T21:03:02.974Z,17.00
2023-05-15T21:05:30.801Z,16.00
2023-05-15T21:07:58.334Z,18.00
2023-05-15T21:10:26.060Z,17.75
2023-05-15T21:12:53.656Z,15.75
2023-05-15T21:15:21.064Z,18.00
2023-05-15T21:17:48.475Z,15.00
2023-05-15T21:20:16.124Z,12.50
2023-05-15T21:22:43.611Z,14.75
2023-05-15T21:25:11.535Z,14.00
2023-05-15T21:27:39.097Z,14.25
2023-05-15T21:30:07.186Z,13.75
2023-05-15T21:32:34.649Z,12.00
2023-05-15T21:35:02.135Z,14.50
2023-05-15T21:37:30.256Z,11.75
2023-05-15T21:39:57.680Z,11.50
2023-05-15T21:42:25.119Z,9.75
2023-05-15T21:44:52.459Z,9.50
2023-05-15T21:47:19.916Z,11.50
2023-05-15T21:49:47.315Z,10.50
2023-05-15T21:52:14.724Z,10.00
2023-05-15T21:54:43.944Z,10.00
2023-05-15T21:57:11.402Z,8.00
2023-05-15T21:59:38.741Z,9.25
2023-05-15T22:02:07.498Z,10.50
2023-05-15T22:04:35.299Z,8.75
2023-05-15T22:07:02.886Z,10.75
2023-05-15T22:09:30.738Z,8.00
2023-05-15T22:11:58.142Z,10.75
2023-05-15T22:14:25.717Z,8.50
2023-05-15T22:16:53.471Z,8.50
2023-05-15T22:19:32.599Z,9.50
2023-05-15T22:22:02.749Z,10.00
2023-05-15T22:24:30.433Z,10.75
2023-05-15T22:26:57.786Z,8.00
2023-05-15T22:29:25.121Z,9.25
2023-05-15T22:31:52.797Z,9.50
2023-05-15T22:34:20.183Z,9.25
2023-05-15T22:36:47.934Z,9.50
2023-05-15T22:39:15.257Z,9.00
2023-05-15T22:41:42.779Z,8.25
2023-05-15T22:44:10.187Z,11.50
2023-05-15T22:46:37.670Z,11.00
2023-05-15T22:49:09.257Z,6.75
2023-05-15T22:51:37.130Z,10.00
2023-05-15T22:54:04.569Z,11.00
2023-05-15T22:56:32.079Z,9.00
2023-05-15T22:58:59.434Z,9.50
2023-05-15T23:01:26.866Z,11.25
2023-05-15T23:03:54.372Z,7.50
2023-05-15T23:06:21.753Z,9.00
2023-05-15T23:08:50.617Z,10.50
2023-05-15T23:11:18.059Z,8.25
2023-05-15T23:13:45.729Z,6.50
2023-05-15T23:16:13.156Z,9.00
2023-05-15T23:18:41.893Z,9.75
2023-05-15T23:21:09.248Z,5.50
2023-05-15T23:23:36.616Z,10.00
2023-05-15T23:26:04.017Z,9.25
2023-05-15T23:28:31.907Z,9.25
2023-05-15T23:30:59.324Z,8.75
2023-05-15T23:33:26.747Z,6.75
2023-05-15T23:35:54.218Z,5.75
2023-05-15T23:38:23.538Z,9.50
2023-05-15T23:40:50.848Z,9.00
2023-05-15T23:43:18.605Z,9.25
2023-05-15T23:45:46.031Z,7.50
2023-05-15T23:48:13.518Z,8.50
2023-05-15T23:50:41.009Z,9.50
2023-05-15T23:53:08.525Z,8.50
2023-05-15T23:55:36.716Z,9.25
2023-05-15T23:58:04.210Z,10.00
